Viana, Brazil
Current Conditions -  °F | °C
As of 5:00 PM on Thursday 30 Oct 2014 (Local Time) from SBVT Reporting Station
Light Rain Light Rain  
Wind Chill: 72°   Ceiling: 1700
Heat Index: 72°   Visibility: 1.8mi
Dew Point: 68°   Wind: 10mph
Humidity: 88%   Direction: 50°NE
Pressure: NA   Gusts: NA
Location:  20.39°S, 40.5°W
Report Text: SBVT 301900Z 05009KT 3000 -RA BR SCT010 BKN017 BKN080 22/20 Q1014
Loading
Personal Weather Stations






























Interactive Weather Map
Tropical Storm Tracking
New forecast layout! Learn more

10-Day Weather Forecast

Advertisements
Track Severe Weather on mobile